Terminal Aerodrome Forecast
Issued by NWS Shreveport, LA

Home | Current Version | Previous Version | Text Only | Print | Product List | Glossary On
Versions: 1 2 3 4 5 6 7 8 9 10 11 12 13 14 15 16 17 18 19 20 21 22 23 24 25 26 27 28 29 30 31 32
000
FTUS44 KSHV 240529
TAFSHV
TAF
KSHV 240529Z 2406/2506 18005KT P6SM FEW190 BKN250
     FM240900 18004KT P6SM OVC025
     FM241100 17003KT 6SM BR OVC015
     FM241300 17004KT 5SM BR OVC007
     FM241500 18006KT P6SM BKN007 OVC015
     FM241800 17008KT P6SM VCTS BKN020 OVC030CB
     FM250000 12008KT 5SM -TSRA OVC025CB=

USA.gov is the U.S. government's official web portal to all federal, state and local government web resources and services.